sensor_id;sensor_type;location;lat;lon;timestamp;P1;durP1;ratioP1;P2;durP2;ratioP2
21798;SDS011;24973;47.178;15.316;2023-06-01T00:00:46;8.93;;;7.70;;
21798;SDS011;24973;47.178;15.316;2023-06-01T00:03:36;10.00;;;7.33;;
21798;SDS011;24973;47.178;15.316;2023-06-01T00:06:27;10.27;;;7.53;;
21798;SDS011;24973;47.178;15.316;2023-06-01T00:09:17;8.73;;;7.00;;
21798;SDS011;24973;47.178;15.316;2023-06-01T00:12:06;8.50;;;6.73;;
21798;SDS011;24973;47.178;15.316;2023-06-01T00:14:56;8.87;;;7.00;;
21798;SDS011;24973;47.178;15.316;2023-06-01T00:17:45;7.93;;;7.13;;
21798;SDS011;24973;47.178;15.316;2023-06-01T00:20:38;8.87;;;7.30;;
21798;SDS011;24973;47.178;15.316;2023-06-01T00:23:28;9.07;;;8.07;;
21798;SDS011;24973;47.178;15.316;2023-06-01T00:26:18;7.20;;;6.57;;
21798;SDS011;24973;47.178;15.316;2023-06-01T00:29:07;9.23;;;7.83;;
21798;SDS011;24973;47.178;15.316;2023-06-01T00:31:57;8.43;;;6.53;;
21798;SDS011;24973;47.178;15.316;2023-06-01T00:34:46;8.80;;;7.10;;
21798;SDS011;24973;47.178;15.316;2023-06-01T00:37:35;8.17;;;7.33;;
21798;SDS011;24973;47.178;15.316;2023-06-01T00:40:25;9.67;;;7.03;;
21798;SDS011;24973;47.178;15.316;2023-06-01T00:43:15;8.27;;;7.47;;
21798;SDS011;24973;47.178;15.316;2023-06-01T00:46:04;7.97;;;7.03;;
21798;SDS011;24973;47.178;15.316;2023-06-01T00:48:54;10.10;;;6.70;;
21798;SDS011;24973;47.178;15.316;2023-06-01T00:51:43;9.50;;;7.20;;
21798;SDS011;24973;47.178;15.316;2023-06-01T00:54:32;10.50;;;6.67;;
21798;SDS011;24973;47.178;15.316;2023-06-01T00:57:23;9.43;;;8.43;;
21798;SDS011;24973;47.178;15.316;2023-06-01T01:00:13;11.07;;;7.07;;
21798;SDS011;24973;47.178;15.316;2023-06-01T01:03:04;11.60;;;7.90;;
21798;SDS011;24973;47.178;15.316;2023-06-01T01:05:58;9.33;;;7.40;;
21798;SDS011;24973;47.178;15.316;2023-06-01T01:08:56;10.40;;;7.33;;
21798;SDS011;24973;47.178;15.316;2023-06-01T01:11:56;7.97;;;7.17;;
21798;SDS011;24973;47.178;15.316;2023-06-01T01:14:50;10.80;;;7.23;;
21798;SDS011;24973;47.178;15.316;2023-06-01T01:17:44;9.67;;;7.97;;
21798;SDS011;24973;47.178;15.316;2023-06-01T01:20:34;11.77;;;7.50;;
21798;SDS011;24973;47.178;15.316;2023-06-01T01:23:31;8.80;;;7.90;;
21798;SDS011;24973;47.178;15.316;2023-06-01T01:26:30;10.20;;;7.90;;
21798;SDS011;24973;47.178;15.316;2023-06-01T01:29:31;12.17;;;7.37;;
21798;SDS011;24973;47.178;15.316;2023-06-01T01:32:21;9.03;;;8.00;;
21798;SDS011;24973;47.178;15.316;2023-06-01T01:35:11;11.00;;;9.57;;
21798;SDS011;24973;47.178;15.316;2023-06-01T01:38:00;9.67;;;8.23;;
21798;SDS011;24973;47.178;15.316;2023-06-01T01:40:49;11.87;;;7.63;;
21798;SDS011;24973;47.178;15.316;2023-06-01T01:43:39;8.73;;;7.83;;
21798;SDS011;24973;47.178;15.316;2023-06-01T01:46:30;8.67;;;7.87;;
21798;SDS011;24973;47.178;15.316;2023-06-01T01:49:25;7.00;;;6.30;;
21798;SDS011;24973;47.178;15.316;2023-06-01T01:52:18;10.10;;;7.37;;
21798;SDS011;24973;47.178;15.316;2023-06-01T01:55:09;9.00;;;7.23;;
21798;SDS011;24973;47.178;15.316;2023-06-01T01:57:59;9.87;;;8.07;;
21798;SDS011;24973;47.178;15.316;2023-06-01T02:00:49;12.77;;;7.30;;
21798;SDS011;24973;47.178;15.316;2023-06-01T02:03:40;8.20;;;7.37;;
21798;SDS011;24973;47.178;15.316;2023-06-01T02:06:29;8.50;;;6.90;;
21798;SDS011;24973;47.178;15.316;2023-06-01T02:09:19;8.77;;;6.67;;
21798;SDS011;24973;47.178;15.316;2023-06-01T02:12:08;8.03;;;7.27;;
21798;SDS011;24973;47.178;15.316;2023-06-01T02:14:58;9.10;;;7.93;;
21798;SDS011;24973;47.178;15.316;2023-06-01T02:17:47;10.00;;;8.43;;
21798;SDS011;24973;47.178;15.316;2023-06-01T02:20:38;11.33;;;8.70;;
21798;SDS011;24973;47.178;15.316;2023-06-01T02:23:27;7.70;;;6.90;;
21798;SDS011;24973;47.178;15.316;2023-06-01T02:26:17;8.93;;;8.03;;
21798;SDS011;24973;47.178;15.316;2023-06-01T02:29:06;9.37;;;7.93;;
21798;SDS011;24973;47.178;15.316;2023-06-01T02:31:55;10.87;;;7.63;;
21798;SDS011;24973;47.178;15.316;2023-06-01T02:34:44;8.03;;;7.20;;
21798;SDS011;24973;47.178;15.316;2023-06-01T02:37:35;8.10;;;7.27;;
21798;SDS011;24973;47.178;15.316;2023-06-01T02:40:24;8.17;;;7.37;;
21798;SDS011;24973;47.178;15.316;2023-06-01T02:43:13;9.33;;;7.33;;
21798;SDS011;24973;47.178;15.316;2023-06-01T02:46:02;9.60;;;8.07;;
21798;SDS011;24973;47.178;15.316;2023-06-01T02:48:51;8.80;;;7.37;;
21798;SDS011;24973;47.178;15.316;2023-06-01T02:51:40;9.83;;;7.33;;
21798;SDS011;24973;47.178;15.316;2023-06-01T02:54:31;8.50;;;7.70;;
21798;SDS011;24973;47.178;15.316;2023-06-01T02:57:20;12.73;;;7.50;;
21798;SDS011;24973;47.178;15.316;2023-06-01T03:00:10;7.20;;;6.47;;
21798;SDS011;24973;47.178;15.316;2023-06-01T03:03:04;11.43;;;7.83;;
21798;SDS011;24973;47.178;15.316;2023-06-01T03:05:54;9.93;;;7.13;;
21798;SDS011;24973;47.178;15.316;2023-06-01T03:08:43;10.17;;;9.17;;
21798;SDS011;24973;47.178;15.316;2023-06-01T03:11:34;8.90;;;6.83;;
21798;SDS011;24973;47.178;15.316;2023-06-01T03:14:23;8.77;;;7.90;;
21798;SDS011;24973;47.178;15.316;2023-06-01T03:17:13;9.10;;;8.17;;
21798;SDS011;24973;47.178;15.316;2023-06-01T03:20:02;8.97;;;8.03;;
21798;SDS011;24973;47.178;15.316;2023-06-01T03:23:01;11.13;;;7.90;;
21798;SDS011;24973;47.178;15.316;2023-06-01T03:25:50;8.57;;;7.77;;
21798;SDS011;24973;47.178;15.316;2023-06-01T03:28:41;10.97;;;8.30;;
21798;SDS011;24973;47.178;15.316;2023-06-01T03:31:30;9.40;;;7.57;;
21798;SDS011;24973;47.178;15.316;2023-06-01T03:34:21;11.20;;;8.13;;
21798;SDS011;24973;47.178;15.316;2023-06-01T03:37:10;9.77;;;7.93;;
21798;SDS011;24973;47.178;15.316;2023-06-01T03:39:59;11.53;;;8.43;;
21798;SDS011;24973;47.178;15.316;2023-06-01T03:42:56;10.03;;;7.73;;
21798;SDS011;24973;47.178;15.316;2023-06-01T03:45:47;12.03;;;8.53;;
21798;SDS011;24973;47.178;15.316;2023-06-01T03:48:36;12.63;;;9.00;;
21798;SDS011;24973;47.178;15.316;2023-06-01T03:51:25;9.80;;;8.23;;
21798;SDS011;24973;47.178;15.316;2023-06-01T03:54:14;9.67;;;8.00;;
21798;SDS011;24973;47.178;15.316;2023-06-01T03:57:04;9.00;;;8.10;;
21798;SDS011;24973;47.178;15.316;2023-06-01T03:59:53;14.77;;;9.10;;
21798;SDS011;24973;47.178;15.316;2023-06-01T04:02:45;10.67;;;8.83;;
21798;SDS011;24973;47.178;15.316;2023-06-01T04:05:36;9.40;;;8.17;;
21798;SDS011;24973;47.178;15.316;2023-06-01T04:08:26;10.00;;;7.77;;
21798;SDS011;24973;47.178;15.316;2023-06-01T04:11:16;11.20;;;8.10;;
21798;SDS011;24973;47.178;15.316;2023-06-01T04:14:05;8.00;;;7.20;;
21798;SDS011;24973;47.178;15.316;2023-06-01T04:16:55;9.97;;;8.10;;
21798;SDS011;24973;47.178;15.316;2023-06-01T04:19:47;9.93;;;8.63;;
21798;SDS011;24973;47.178;15.316;2023-06-01T04:22:38;10.37;;;8.73;;
21798;SDS011;24973;47.178;15.316;2023-06-01T04:25:28;9.80;;;8.33;;
21798;SDS011;24973;47.178;15.316;2023-06-01T04:28:18;13.70;;;8.90;;
21798;SDS011;24973;47.178;15.316;2023-06-01T04:31:08;10.60;;;8.50;;
21798;SDS011;24973;47.178;15.316;2023-06-01T04:34:03;12.13;;;8.27;;
21798;SDS011;24973;47.178;15.316;2023-06-01T04:36:54;13.07;;;10.60;;
21798;SDS011;24973;47.178;15.316;2023-06-01T04:39:43;11.37;;;9.10;;
21798;SDS011;24973;47.178;15.316;2023-06-01T04:42:35;14.43;;;9.63;;
21798;SDS011;24973;47.178;15.316;2023-06-01T04:45:28;11.30;;;9.20;;
21798;SDS011;24973;47.178;15.316;2023-06-01T04:48:20;12.23;;;8.53;;
21798;SDS011;24973;47.178;15.316;2023-06-01T04:51:09;9.63;;;8.63;;
21798;SDS011;24973;47.178;15.316;2023-06-01T04:53:59;11.27;;;8.77;;
21798;SDS011;24973;47.178;15.316;2023-06-01T04:56:49;13.00;;;10.57;;
21798;SDS011;24973;47.178;15.316;2023-06-01T04:59:39;11.47;;;9.23;;
21798;SDS011;24973;47.178;15.316;2023-06-01T05:02:28;15.33;;;9.13;;
21798;SDS011;24973;47.178;15.316;2023-06-01T05:05:18;12.97;;;9.80;;
21798;SDS011;24973;47.178;15.316;2023-06-01T05:08:07;15.57;;;8.70;;
21798;SDS011;24973;47.178;15.316;2023-06-01T05:10:58;11.33;;;9.13;;
21798;SDS011;24973;47.178;15.316;2023-06-01T05:13:47;11.40;;;8.60;;
21798;SDS011;24973;47.178;15.316;2023-06-01T05:16:38;9.20;;;8.27;;
21798;SDS011;24973;47.178;15.316;2023-06-01T05:19:27;24.10;;;8.80;;
21798;SDS011;24973;47.178;15.316;2023-06-01T05:22:16;9.70;;;8.03;;
21798;SDS011;24973;47.178;15.316;2023-06-01T05:25:06;10.60;;;7.70;;
21798;SDS011;24973;47.178;15.316;2023-06-01T05:27:57;9.63;;;7.37;;
21798;SDS011;24973;47.178;15.316;2023-06-01T05:30:46;12.23;;;8.50;;
21798;SDS011;24973;47.178;15.316;2023-06-01T05:33:35;10.10;;;8.10;;
21798;SDS011;24973;47.178;15.316;2023-06-01T05:36:24;8.57;;;7.57;;
21798;SDS011;24973;47.178;15.316;2023-06-01T05:39:14;9.83;;;6.50;;
21798;SDS011;24973;47.178;15.316;2023-06-01T05:42:03;8.77;;;6.83;;
21798;SDS011;24973;47.178;15.316;2023-06-01T05:44:55;10.70;;;6.60;;
21798;SDS011;24973;47.178;15.316;2023-06-01T05:47:44;10.07;;;7.30;;
21798;SDS011;24973;47.178;15.316;2023-06-01T05:50:33;9.83;;;7.10;;
21798;SDS011;24973;47.178;15.316;2023-06-01T05:53:22;9.70;;;7.47;;
21798;SDS011;24973;47.178;15.316;2023-06-01T05:56:12;11.07;;;8.47;;
21798;SDS011;24973;47.178;15.316;2023-06-01T05:59:01;8.30;;;7.30;;
21798;SDS011;24973;47.178;15.316;2023-06-01T06:01:51;13.83;;;7.70;;
21798;SDS011;24973;47.178;15.316;2023-06-01T06:04:41;10.23;;;6.83;;
21798;SDS011;24973;47.178;15.316;2023-06-01T06:07:31;9.63;;;6.93;;
21798;SDS011;24973;47.178;15.316;2023-06-01T06:10:20;11.73;;;8.13;;
21798;SDS011;24973;47.178;15.316;2023-06-01T06:13:09;10.63;;;7.00;;
21798;SDS011;24973;47.178;15.316;2023-06-01T06:15:59;8.23;;;6.43;;
21798;SDS011;24973;47.178;15.316;2023-06-01T06:18:49;7.80;;;5.90;;
21798;SDS011;24973;47.178;15.316;2023-06-01T06:21:39;11.43;;;6.93;;
21798;SDS011;24973;47.178;15.316;2023-06-01T06:24:28;10.40;;;7.07;;
21798;SDS011;24973;47.178;15.316;2023-06-01T06:27:17;11.03;;;6.90;;
21798;SDS011;24973;47.178;15.316;2023-06-01T06:30:07;8.80;;;6.93;;
21798;SDS011;24973;47.178;15.316;2023-06-01T06:32:56;9.70;;;7.13;;
21798;SDS011;24973;47.178;15.316;2023-06-01T06:35:47;11.20;;;6.97;;
21798;SDS011;24973;47.178;15.316;2023-06-01T06:38:36;10.73;;;6.20;;
21798;SDS011;24973;47.178;15.316;2023-06-01T06:41:26;10.50;;;5.80;;
21798;SDS011;24973;47.178;15.316;2023-06-01T06:44:15;7.73;;;6.17;;
21798;SDS011;24973;47.178;15.316;2023-06-01T06:47:04;7.07;;;5.83;;
21798;SDS011;24973;47.178;15.316;2023-06-01T06:49:54;9.43;;;6.40;;
21798;SDS011;24973;47.178;15.316;2023-06-01T06:52:45;8.70;;;6.43;;
21798;SDS011;24973;47.178;15.316;2023-06-01T06:55:34;13.23;;;6.63;;
21798;SDS011;24973;47.178;15.316;2023-06-01T06:58:23;12.20;;;6.03;;
21798;SDS011;24973;47.178;15.316;2023-06-01T07:01:13;13.87;;;7.30;;
21798;SDS011;24973;47.178;15.316;2023-06-01T07:04:03;9.23;;;6.60;;
21798;SDS011;24973;47.178;15.316;2023-06-01T07:06:52;11.60;;;6.10;;
21798;SDS011;24973;47.178;15.316;2023-06-01T07:09:43;7.67;;;6.17;;
21798;SDS011;24973;47.178;15.316;2023-06-01T07:12:32;9.37;;;5.83;;
21798;SDS011;24973;47.178;15.316;2023-06-01T07:15:21;10.93;;;6.13;;
21798;SDS011;24973;47.178;15.316;2023-06-01T07:18:11;7.50;;;6.10;;
21798;SDS011;24973;47.178;15.316;2023-06-01T07:21:01;8.97;;;6.20;;
21798;SDS011;24973;47.178;15.316;2023-06-01T07:23:50;10.23;;;5.73;;
21798;SDS011;24973;47.178;15.316;2023-06-01T07:26:41;12.40;;;5.77;;
21798;SDS011;24973;47.178;15.316;2023-06-01T07:29:30;6.67;;;4.90;;
21798;SDS011;24973;47.178;15.316;2023-06-01T07:32:19;8.50;;;5.47;;
21798;SDS011;24973;47.178;15.316;2023-06-01T07:35:09;8.13;;;5.43;;
21798;SDS011;24973;47.178;15.316;2023-06-01T07:37:59;6.53;;;5.73;;
21798;SDS011;24973;47.178;15.316;2023-06-01T07:40:51;6.20;;;4.83;;
21798;SDS011;24973;47.178;15.316;2023-06-01T07:43:48;7.20;;;4.60;;
21798;SDS011;24973;47.178;15.316;2023-06-01T07:46:39;4.87;;;4.27;;
21798;SDS011;24973;47.178;15.316;2023-06-01T07:49:34;9.80;;;5.00;;
21798;SDS011;24973;47.178;15.316;2023-06-01T07:52:23;7.53;;;5.73;;
21798;SDS011;24973;47.178;15.316;2023-06-01T07:55:13;5.60;;;4.70;;
21798;SDS011;24973;47.178;15.316;2023-06-01T07:58:03;8.27;;;4.87;;
21798;SDS011;24973;47.178;15.316;2023-06-01T08:00:54;8.37;;;5.73;;
21798;SDS011;24973;47.178;15.316;2023-06-01T08:03:44;7.73;;;5.20;;
21798;SDS011;24973;47.178;15.316;2023-06-01T08:06:33;7.87;;;5.33;;
21798;SDS011;24973;47.178;15.316;2023-06-01T08:09:25;7.00;;;5.00;;
21798;SDS011;24973;47.178;15.316;2023-06-01T08:12:25;8.97;;;4.87;;
21798;SDS011;24973;47.178;15.316;2023-06-01T08:15:19;9.07;;;5.13;;
21798;SDS011;24973;47.178;15.316;2023-06-01T08:18:18;9.47;;;5.23;;
21798;SDS011;24973;47.178;15.316;2023-06-01T08:21:11;10.23;;;5.27;;
21798;SDS011;24973;47.178;15.316;2023-06-01T08:24:08;7.50;;;4.90;;
21798;SDS011;24973;47.178;15.316;2023-06-01T08:26:58;14.30;;;7.03;;
21798;SDS011;24973;47.178;15.316;2023-06-01T08:29:47;7.90;;;4.93;;
21798;SDS011;24973;47.178;15.316;2023-06-01T08:32:37;9.53;;;5.03;;
21798;SDS011;24973;47.178;15.316;2023-06-01T08:35:32;7.10;;;4.03;;
21798;SDS011;24973;47.178;15.316;2023-06-01T08:38:21;7.27;;;4.27;;
21798;SDS011;24973;47.178;15.316;2023-06-01T08:41:14;8.03;;;4.57;;
21798;SDS011;24973;47.178;15.316;2023-06-01T08:44:22;6.20;;;4.63;;
21798;SDS011;24973;47.178;15.316;2023-06-01T08:47:11;6.57;;;5.07;;
21798;SDS011;24973;47.178;15.316;2023-06-01T08:50:01;5.90;;;4.77;;
21798;SDS011;24973;47.178;15.316;2023-06-01T08:52:53;7.87;;;5.23;;
21798;SDS011;24973;47.178;15.316;2023-06-01T08:55:44;4.93;;;4.20;;
21798;SDS011;24973;47.178;15.316;2023-06-01T08:58:37;7.97;;;5.33;;
21798;SDS011;24973;47.178;15.316;2023-06-01T09:01:32;4.93;;;4.37;;
21798;SDS011;24973;47.178;15.316;2023-06-01T09:04:27;5.33;;;4.57;;
21798;SDS011;24973;47.178;15.316;2023-06-01T09:07:17;6.57;;;4.60;;
21798;SDS011;24973;47.178;15.316;2023-06-01T09:10:09;7.83;;;4.70;;
21798;SDS011;24973;47.178;15.316;2023-06-01T09:12:58;6.37;;;4.20;;
21798;SDS011;24973;47.178;15.316;2023-06-01T09:15:51;9.30;;;4.83;;
21798;SDS011;24973;47.178;15.316;2023-06-01T09:18:52;6.20;;;4.47;;
21798;SDS011;24973;47.178;15.316;2023-06-01T09:21:48;7.23;;;5.13;;
21798;SDS011;24973;47.178;15.316;2023-06-01T09:25:00;8.50;;;4.80;;
21798;SDS011;24973;47.178;15.316;2023-06-01T09:27:51;6.87;;;5.00;;
21798;SDS011;24973;47.178;15.316;2023-06-01T09:30:41;8.90;;;5.50;;
21798;SDS011;24973;47.178;15.316;2023-06-01T09:33:31;6.43;;;3.73;;
21798;SDS011;24973;47.178;15.316;2023-06-01T09:36:33;7.87;;;4.77;;
21798;SDS011;24973;47.178;15.316;2023-06-01T09:39:44;7.90;;;5.33;;
21798;SDS011;24973;47.178;15.316;2023-06-01T09:42:33;7.43;;;5.20;;
21798;SDS011;24973;47.178;15.316;2023-06-01T09:45:25;7.37;;;5.37;;
21798;SDS011;24973;47.178;15.316;2023-06-01T09:48:17;10.83;;;5.37;;
21798;SDS011;24973;47.178;15.316;2023-06-01T09:54:51;8.27;;;5.30;;
21798;SDS011;24973;47.178;15.316;2023-06-01T09:57:45;8.27;;;5.47;;
21798;SDS011;24973;47.178;15.316;2023-06-01T10:00:36;6.90;;;4.83;;
21798;SDS011;24973;47.178;15.316;2023-06-01T10:03:26;5.63;;;4.50;;
21798;SDS011;24973;47.178;15.316;2023-06-01T10:06:19;8.47;;;6.00;;
21798;SDS011;24973;47.178;15.316;2023-06-01T10:09:10;8.07;;;5.80;;
21798;SDS011;24973;47.178;15.316;2023-06-01T10:12:02;9.37;;;5.97;;
21798;SDS011;24973;47.178;15.316;2023-06-01T10:14:52;8.97;;;6.10;;
21798;SDS011;24973;47.178;15.316;2023-06-01T10:17:44;7.53;;;5.40;;
21798;SDS011;24973;47.178;15.316;2023-06-01T10:20:34;10.00;;;4.80;;
21798;SDS011;24973;47.178;15.316;2023-06-01T10:23:24;10.17;;;5.77;;
21798;SDS011;24973;47.178;15.316;2023-06-01T10:26:16;8.77;;;4.83;;
21798;SDS011;24973;47.178;15.316;2023-06-01T10:29:15;9.93;;;6.30;;
21798;SDS011;24973;47.178;15.316;2023-06-01T10:32:14;7.13;;;5.00;;
21798;SDS011;24973;47.178;15.316;2023-06-01T10:45:38;8.37;;;4.83;;
21798;SDS011;24973;47.178;15.316;2023-06-01T10:51:43;7.57;;;5.17;;
21798;SDS011;24973;47.178;15.316;2023-06-01T11:02:07;8.77;;;5.00;;
21798;SDS011;24973;47.178;15.316;2023-06-01T11:09:00;4.83;;;4.33;;
21798;SDS011;24973;47.178;15.316;2023-06-01T11:12:27;8.07;;;4.73;;
21798;SDS011;24973;47.178;15.316;2023-06-01T11:19:29;8.33;;;4.40;;
21798;SDS011;24973;47.178;15.316;2023-06-01T11:22:33;6.60;;;5.10;;
21798;SDS011;24973;47.178;15.316;2023-06-01T11:29:17;6.50;;;4.50;;
21798;SDS011;24973;47.178;15.316;2023-06-01T11:32:07;6.90;;;4.78;;
21798;SDS011;24973;47.178;15.316;2023-06-01T11:34:59;9.88;;;5.20;;
21798;SDS011;24973;47.178;15.316;2023-06-01T11:37:52;6.75;;;5.90;;
21798;SDS011;24973;47.178;15.316;2023-06-01T11:43:56;5.97;;;4.33;;
21798;SDS011;24973;47.178;15.316;2023-06-01T11:46:54;8.93;;;5.03;;
21798;SDS011;24973;47.178;15.316;2023-06-01T11:49:53;7.80;;;5.00;;
21798;SDS011;24973;47.178;15.316;2023-06-01T11:53:07;8.68;;;4.35;;
21798;SDS011;24973;47.178;15.316;2023-06-01T11:55:56;8.63;;;4.60;;
21798;SDS011;24973;47.178;15.316;2023-06-01T11:58:46;5.38;;;4.88;;
21798;SDS011;24973;47.178;15.316;2023-06-01T12:01:42;5.17;;;4.67;;
21798;SDS011;24973;47.178;15.316;2023-06-01T12:13:01;7.97;;;5.37;;
21798;SDS011;24973;47.178;15.316;2023-06-01T12:15:51;8.07;;;4.77;;
21798;SDS011;24973;47.178;15.316;2023-06-01T12:18:40;4.38;;;3.97;;
21798;SDS011;24973;47.178;15.316;2023-06-01T12:21:31;6.40;;;4.72;;
21798;SDS011;24973;47.178;15.316;2023-06-01T12:24:27;8.30;;;4.95;;
21798;SDS011;24973;47.178;15.316;2023-06-01T12:27:17;5.20;;;4.23;;
21798;SDS011;24973;47.178;15.316;2023-06-01T12:30:19;6.40;;;4.53;;
21798;SDS011;24973;47.178;15.316;2023-06-01T12:33:09;7.23;;;4.53;;
21798;SDS011;24973;47.178;15.316;2023-06-01T12:36:07;6.73;;;4.43;;
21798;SDS011;24973;47.178;15.316;2023-06-01T12:38:57;6.83;;;4.30;;
21798;SDS011;24973;47.178;15.316;2023-06-01T12:41:47;7.00;;;5.00;;
21798;SDS011;24973;47.178;15.316;2023-06-01T12:44:37;8.00;;;5.37;;
21798;SDS011;24973;47.178;15.316;2023-06-01T12:47:34;6.40;;;5.50;;
21798;SDS011;24973;47.178;15.316;2023-06-01T12:50:24;5.57;;;4.70;;
21798;SDS011;24973;47.178;15.316;2023-06-01T12:53:13;8.00;;;5.37;;
21798;SDS011;24973;47.178;15.316;2023-06-01T12:56:04;8.87;;;4.67;;
21798;SDS011;24973;47.178;15.316;2023-06-01T12:58:53;10.53;;;4.90;;
21798;SDS011;24973;47.178;15.316;2023-06-01T13:01:42;7.03;;;5.30;;
21798;SDS011;24973;47.178;15.316;2023-06-01T13:04:31;5.43;;;4.83;;
21798;SDS011;24973;47.178;15.316;2023-06-01T13:07:21;7.63;;;5.27;;
21798;SDS011;24973;47.178;15.316;2023-06-01T13:10:10;5.43;;;4.10;;
21798;SDS011;24973;47.178;15.316;2023-06-01T13:13:02;5.07;;;4.57;;
21798;SDS011;24973;47.178;15.316;2023-06-01T13:15:51;5.87;;;5.23;;
21798;SDS011;24973;47.178;15.316;2023-06-01T13:18:40;7.07;;;5.30;;
21798;SDS011;24973;47.178;15.316;2023-06-01T13:21:30;8.57;;;4.63;;
21798;SDS011;24973;47.178;15.316;2023-06-01T13:24:20;6.87;;;4.90;;
21798;SDS011;24973;47.178;15.316;2023-06-01T13:27:09;6.67;;;5.00;;
21798;SDS011;24973;47.178;15.316;2023-06-01T13:29:59;5.53;;;4.60;;
21798;SDS011;24973;47.178;15.316;2023-06-01T13:32:49;6.13;;;4.77;;
21798;SDS011;24973;47.178;15.316;2023-06-01T13:35:38;7.77;;;4.80;;
21798;SDS011;24973;47.178;15.316;2023-06-01T13:38:27;6.53;;;4.77;;
21798;SDS011;24973;47.178;15.316;2023-06-01T13:41:17;7.57;;;4.93;;
21798;SDS011;24973;47.178;15.316;2023-06-01T13:44:06;8.47;;;4.83;;
21798;SDS011;24973;47.178;15.316;2023-06-01T13:46:57;9.93;;;4.60;;
21798;SDS011;24973;47.178;15.316;2023-06-01T13:49:46;5.63;;;4.73;;
21798;SDS011;24973;47.178;15.316;2023-06-01T13:52:35;6.67;;;4.80;;
21798;SDS011;24973;47.178;15.316;2023-06-01T13:55:24;6.60;;;4.03;;
21798;SDS011;24973;47.178;15.316;2023-06-01T13:58:14;7.57;;;4.50;;
21798;SDS011;24973;47.178;15.316;2023-06-01T14:01:04;5.87;;;5.10;;
21798;SDS011;24973;47.178;15.316;2023-06-01T14:03:54;6.40;;;3.97;;
21798;SDS011;24973;47.178;15.316;2023-06-01T14:06:43;5.20;;;3.83;;
21798;SDS011;24973;47.178;15.316;2023-06-01T14:09:32;6.73;;;4.57;;
21798;SDS011;24973;47.178;15.316;2023-06-01T14:12:21;7.50;;;5.17;;
21798;SDS011;24973;47.178;15.316;2023-06-01T14:15:11;4.93;;;4.00;;
21798;SDS011;24973;47.178;15.316;2023-06-01T14:18:00;6.53;;;4.43;;
21798;SDS011;24973;47.178;15.316;2023-06-01T14:20:50;7.20;;;4.20;;
21798;SDS011;24973;47.178;15.316;2023-06-01T14:23:39;6.37;;;3.77;;
21798;SDS011;24973;47.178;15.316;2023-06-01T14:26:31;5.40;;;3.60;;
21798;SDS011;24973;47.178;15.316;2023-06-01T14:29:20;5.03;;;4.17;;
21798;SDS011;24973;47.178;15.316;2023-06-01T14:32:09;6.60;;;4.23;;
21798;SDS011;24973;47.178;15.316;2023-06-01T14:34:58;6.40;;;4.57;;
21798;SDS011;24973;47.178;15.316;2023-06-01T14:37:48;5.17;;;4.67;;
21798;SDS011;24973;47.178;15.316;2023-06-01T14:40:37;4.63;;;4.13;;
21798;SDS011;24973;47.178;15.316;2023-06-01T14:43:26;7.67;;;4.57;;
21798;SDS011;24973;47.178;15.316;2023-06-01T14:46:16;9.35;;;4.75;;
21798;SDS011;24973;47.178;15.316;2023-06-01T14:49:07;6.18;;;4.13;;
21798;SDS011;24973;47.178;15.316;2023-06-01T14:51:56;4.38;;;3.42;;
21798;SDS011;24973;47.178;15.316;2023-06-01T14:54:47;8.70;;;4.72;;
21798;SDS011;24973;47.178;15.316;2023-06-01T14:57:36;6.73;;;3.87;;
21798;SDS011;24973;47.178;15.316;2023-06-01T15:00:25;6.35;;;3.72;;
21798;SDS011;24973;47.178;15.316;2023-06-01T15:06:04;6.30;;;4.88;;
21798;SDS011;24973;47.178;15.316;2023-06-01T15:08:53;4.25;;;3.58;;
21798;SDS011;24973;47.178;15.316;2023-06-01T15:11:44;4.05;;;3.65;;
21798;SDS011;24973;47.178;15.316;2023-06-01T15:14:33;3.92;;;3.58;;
21798;SDS011;24973;47.178;15.316;2023-06-01T15:17:22;4.22;;;3.85;;
21798;SDS011;24973;47.178;15.316;2023-06-01T15:20:11;4.05;;;3.65;;
21798;SDS011;24973;47.178;15.316;2023-06-01T15:23:00;3.92;;;3.58;;
21798;SDS011;24973;47.178;15.316;2023-06-01T15:25:49;6.38;;;4.07;;
21798;SDS011;24973;47.178;15.316;2023-06-01T15:28:40;5.72;;;4.43;;
21798;SDS011;24973;47.178;15.316;2023-06-01T15:31:29;6.00;;;3.58;;
21798;SDS011;24973;47.178;15.316;2023-06-01T15:34:18;5.38;;;4.03;;
21798;SDS011;24973;47.178;15.316;2023-06-01T15:37:07;4.25;;;3.63;;
21798;SDS011;24973;47.178;15.316;2023-06-01T15:39:56;7.72;;;4.35;;
21798;SDS011;24973;47.178;15.316;2023-06-01T15:42:46;6.70;;;3.58;;
21798;SDS011;24973;47.178;15.316;2023-06-01T15:45:36;4.75;;;3.55;;
21798;SDS011;24973;47.178;15.316;2023-06-01T15:48:25;5.20;;;3.70;;
21798;SDS011;24973;47.178;15.316;2023-06-01T15:51:14;4.67;;;3.43;;
21798;SDS011;24973;47.178;15.316;2023-06-01T15:54:03;6.50;;;3.53;;
21798;SDS011;24973;47.178;15.316;2023-06-01T15:56:52;4.93;;;3.70;;
21798;SDS011;24973;47.178;15.316;2023-06-01T15:59:41;3.73;;;2.83;;
21798;SDS011;24973;47.178;15.316;2023-06-01T16:02:32;6.07;;;4.00;;
21798;SDS011;24973;47.178;15.316;2023-06-01T16:05:21;7.00;;;4.17;;
21798;SDS011;24973;47.178;15.316;2023-06-01T16:08:10;3.63;;;3.00;;
21798;SDS011;24973;47.178;15.316;2023-06-01T16:10:59;6.50;;;4.13;;
21798;SDS011;24973;47.178;15.316;2023-06-01T16:13:49;4.80;;;3.10;;
21798;SDS011;24973;47.178;15.316;2023-06-01T16:16:38;5.23;;;3.20;;
21798;SDS011;24973;47.178;15.316;2023-06-01T16:19:28;4.20;;;3.80;;
21798;SDS011;24973;47.178;15.316;2023-06-01T16:22:17;4.97;;;3.23;;
21798;SDS011;24973;47.178;15.316;2023-06-01T16:25:07;4.60;;;4.03;;
21798;SDS011;24973;47.178;15.316;2023-06-01T16:27:57;4.63;;;3.53;;
21798;SDS011;24973;47.178;15.316;2023-06-01T16:30:47;8.17;;;4.50;;
21798;SDS011;24973;47.178;15.316;2023-06-01T16:33:38;4.60;;;3.43;;
21798;SDS011;24973;47.178;15.316;2023-06-01T16:36:29;5.90;;;4.13;;
21798;SDS011;24973;47.178;15.316;2023-06-01T16:39:18;6.97;;;4.20;;
21798;SDS011;24973;47.178;15.316;2023-06-01T16:42:07;4.57;;;4.07;;
21798;SDS011;24973;47.178;15.316;2023-06-01T16:44:56;8.83;;;4.20;;
21798;SDS011;24973;47.178;15.316;2023-06-01T16:47:46;6.20;;;4.63;;
21798;SDS011;24973;47.178;15.316;2023-06-01T16:50:35;5.13;;;3.87;;
21798;SDS011;24973;47.178;15.316;2023-06-01T16:53:25;5.33;;;4.83;;
21798;SDS011;24973;47.178;15.316;2023-06-01T16:56:14;6.87;;;4.50;;
21798;SDS011;24973;47.178;15.316;2023-06-01T16:59:03;6.53;;;4.97;;
21798;SDS011;24973;47.178;15.316;2023-06-01T17:01:53;7.70;;;5.03;;
21798;SDS011;24973;47.178;15.316;2023-06-01T17:04:42;8.20;;;5.77;;
21798;SDS011;24973;47.178;15.316;2023-06-01T17:07:31;5.97;;;5.33;;
21798;SDS011;24973;47.178;15.316;2023-06-01T17:10:21;9.13;;;5.30;;
21798;SDS011;24973;47.178;15.316;2023-06-01T17:13:10;9.43;;;5.67;;
21798;SDS011;24973;47.178;15.316;2023-06-01T17:16:00;10.37;;;6.00;;
21798;SDS011;24973;47.178;15.316;2023-06-01T17:18:51;10.30;;;5.40;;
21798;SDS011;24973;47.178;15.316;2023-06-01T17:21:40;6.60;;;5.25;;
21798;SDS011;24973;47.178;15.316;2023-06-01T17:24:29;6.53;;;5.83;;
21798;SDS011;24973;47.178;15.316;2023-06-01T17:27:19;12.63;;;6.50;;
21798;SDS011;24973;47.178;15.316;2023-06-01T17:30:09;5.83;;;4.80;;
21798;SDS011;24973;47.178;15.316;2023-06-01T17:32:58;7.00;;;5.37;;
21798;SDS011;24973;47.178;15.316;2023-06-01T17:35:48;7.23;;;5.63;;
21798;SDS011;24973;47.178;15.316;2023-06-01T17:38:37;7.00;;;5.57;;
21798;SDS011;24973;47.178;15.316;2023-06-01T17:41:27;8.13;;;5.43;;